Time;durP1;ratioP1;P1;durP2;ratioP2;P2;SDS_P1;SDS_P2;PMS_P1;PMS_P2;Temp;Humidity;BMP_temperature;BMP_pressure;BME280_temperature;BME280_humidity;BME280_pressure;Samples;Min_cycle;Max_cycle;Signal;HPM_P1;HPM_P2
2021/07/05 00:01:50;;;;;;;38.03;19.70;;;;;;;;;;5014257;28;20060;-48
2021/07/05 00:04:17;;;;;;;34.75;19.20;;;;;;;;;;5020068;28;20108;-47
2021/07/05 00:06:43;;;;;;;29.02;18.58;;;;;;;;;;5017415;28;20049;-48
2021/07/05 00:09:09;;;;;;;29.85;18.23;;;;;;;;;;5021112;28;20156;-50
2021/07/05 00:11:36;;;;;;;28.45;17.00;;;;;;;;;;5021523;28;20099;-48
2021/07/05 00:14:02;;;;;;;37.22;16.67;;;;;;;;;;5007670;28;20046;-48
2021/07/05 00:16:29;;;;;;;24.88;16.02;;;;;;;;;;5018532;28;20563;-50
2021/07/05 00:18:55;;;;;;;29.50;16.33;;;;;;;;;;5012840;28;20073;-50
2021/07/05 00:21:22;;;;;;;29.88;15.93;;;;;;;;;;5018477;28;20091;-48
2021/07/05 00:23:48;;;;;;;22.98;16.08;;;;;;;;;;5017938;28;20196;-47
2021/07/05 00:26:14;;;;;;;21.80;14.88;;;;;;;;;;5022746;28;20115;-47
2021/07/05 00:28:41;;;;;;;25.40;15.05;;;;;;;;;;5014123;28;20144;-48
2021/07/05 00:31:07;;;;;;;23.85;15.80;;;;;;;;;;5019093;28;20152;-49
2021/07/05 00:33:36;;;;;;;22.92;15.75;;;;;;;;;;5020879;28;20140;-49
2021/07/05 00:36:03;;;;;;;21.42;14.55;;;;;;;;;;5017741;28;20041;-47
2021/07/05 00:38:30;;;;;;;27.27;15.82;;;;;;;;;;5025210;28;20792;-48
2021/07/05 00:40:57;;;;;;;29.90;15.67;;;;;;;;;;5017673;28;20104;-48
2021/07/05 00:43:24;;;;;;;28.02;15.57;;;;;;;;;;5018924;28;20307;-47
2021/07/05 00:45:50;;;;;;;19.98;14.50;;;;;;;;;;5020867;28;20140;-48
2021/07/05 00:48:16;;;;;;;22.50;12.77;;;;;;;;;;5024645;28;20049;-48
2021/07/05 00:50:43;;;;;;;18.23;12.70;;;;;;;;;;5024882;28;20065;-48
2021/07/05 00:53:09;;;;;;;23.80;12.88;;;;;;;;;;5021187;28;20060;-48
2021/07/05 00:55:36;;;;;;;20.20;11.48;;;;;;;;;;5020640;28;20132;-48
2021/07/05 00:58:03;;;;;;;17.85;12.48;;;;;;;;;;5018407;28;20045;-48
2021/07/05 01:00:29;;;;;;;18.75;12.25;;;;;;;;;;5027294;28;20045;-51
2021/07/05 01:02:56;;;;;;;20.75;11.40;;;;;;;;;;5016918;28;20078;-48
2021/07/05 01:05:23;;;;;;;21.58;10.95;;;;;;;;;;5024196;28;20140;-48
2021/07/05 01:07:49;;;;;;;18.20;11.23;;;;;;;;;;5022655;28;20091;-49
2021/07/05 01:10:17;;;;;;;15.07;10.52;;;;;;;;;;5012136;28;20744;-48
2021/07/05 01:12:43;;;;;;;16.25;10.90;;;;;;;;;;5024643;28;20056;-47
2021/07/05 01:15:12;;;;;;;18.73;10.83;;;;;;;;;;5012254;28;20435;-48
2021/07/05 01:17:39;;;;;;;15.60;10.35;;;;;;;;;;5015039;28;20053;-47
2021/07/05 01:20:06;;;;;;;16.55;10.00;;;;;;;;;;5015090;28;20136;-49
2021/07/05 01:22:32;;;;;;;16.20;9.98;;;;;;;;;;5013459;28;20136;-49
2021/07/05 01:24:59;;;;;;;15.80;10.50;;;;;;;;;;5014594;28;20143;-48
2021/07/05 01:27:26;;;;;;;18.63;9.80;;;;;;;;;;5015393;28;20129;-49
2021/07/05 01:29:52;;;;;;;15.93;9.73;;;;;;;;;;5021654;28;20164;-47
2021/07/05 01:32:18;;;;;;;18.63;10.48;;;;;;;;;;5011393;28;20131;-48
2021/07/05 01:34:45;;;;;;;14.35;10.07;;;;;;;;;;5023645;28;20132;-48
2021/07/05 01:37:11;;;;;;;14.77;9.10;;;;;;;;;;5013710;28;20064;-49
2021/07/05 01:39:38;;;;;;;16.30;9.85;;;;;;;;;;5025119;28;20148;-47
2021/07/05 01:42:05;;;;;;;15.90;9.65;;;;;;;;;;5017567;28;20041;-48
2021/07/05 01:44:32;;;;;;;15.15;9.43;;;;;;;;;;5026918;28;20171;-49
2021/07/05 01:46:58;;;;;;;18.95;9.80;;;;;;;;;;5025076;28;20459;-47
2021/07/05 01:49:25;;;;;;;16.23;9.20;;;;;;;;;;5015717;28;20077;-48
2021/07/05 01:51:51;;;;;;;15.82;9.27;;;;;;;;;;5014156;28;20136;-48
2021/07/05 01:54:17;;;;;;;15.02;9.32;;;;;;;;;;5016605;28;20136;-47
2021/07/05 01:56:44;;;;;;;14.10;8.82;;;;;;;;;;5016734;28;20108;-48
2021/07/05 01:59:31;;;;;;;13.82;9.18;;;;;;;;;;5014644;28;20054;-48
2021/07/05 02:01:57;;;;;;;15.48;9.27;;;;;;;;;;5019299;28;20049;-48
2021/07/05 02:04:24;;;;;;;16.92;8.75;;;;;;;;;;5012817;28;20144;-48
2021/07/05 02:06:51;;;;;;;18.70;9.40;;;;;;;;;;5023424;28;20088;-49
2021/07/05 02:09:17;;;;;;;19.38;8.43;;;;;;;;;;5022599;28;20064;-48
2021/07/05 02:11:44;;;;;;;15.43;8.82;;;;;;;;;;5020086;28;20045;-47
2021/07/05 02:14:10;;;;;;;13.57;9.27;;;;;;;;;;5020896;28;20075;-49
2021/07/05 02:16:36;;;;;;;11.75;8.57;;;;;;;;;;5012273;28;21559;-51
2021/07/05 02:19:03;;;;;;;16.10;7.90;;;;;;;;;;5015353;28;20132;-47
2021/07/05 02:21:29;;;;;;;17.83;8.93;;;;;;;;;;5015971;28;20144;-48
2021/07/05 02:23:56;;;;;;;15.60;8.68;;;;;;;;;;5023001;28;20409;-49
2021/07/05 02:26:22;;;;;;;12.20;8.00;;;;;;;;;;5013689;28;20049;-48
2021/07/05 02:28:49;;;;;;;13.63;8.50;;;;;;;;;;5023844;28;20128;-48
2021/07/05 02:31:15;;;;;;;16.27;7.78;;;;;;;;;;5016737;28;20053;-48
2021/07/05 02:33:42;;;;;;;13.68;7.90;;;;;;;;;;5013327;28;20061;-48
2021/07/05 02:36:09;;;;;;;18.15;8.02;;;;;;;;;;5025876;28;20141;-48
2021/07/05 02:38:37;;;;;;;12.93;7.88;;;;;;;;;;5017392;28;20050;-48
2021/07/05 02:41:05;;;;;;;12.80;7.95;;;;;;;;;;5025623;28;20084;-48
2021/07/05 02:43:31;;;;;;;16.90;9.20;;;;;;;;;;5016562;28;20152;-48
2021/07/05 02:45:58;;;;;;;15.10;9.38;;;;;;;;;;5018992;28;20088;-49
2021/07/05 02:48:26;;;;;;;15.52;8.38;;;;;;;;;;5021209;28;20065;-49
2021/07/05 02:50:55;;;;;;;19.67;9.73;;;;;;;;;;5019243;28;20215;-48
2021/07/05 02:53:22;;;;;;;19.10;9.40;;;;;;;;;;5020152;28;20141;-49
2021/07/05 02:55:48;;;;;;;19.33;10.48;;;;;;;;;;5018385;28;20148;-48
2021/07/05 02:58:15;;;;;;;16.52;10.07;;;;;;;;;;5020223;28;20476;-48
2021/07/05 03:00:43;;;;;;;25.92;10.05;;;;;;;;;;5016042;28;20152;-48
2021/07/05 03:03:10;;;;;;;13.00;9.15;;;;;;;;;;5020548;28;20057;-48
2021/07/05 03:05:37;;;;;;;15.77;8.88;;;;;;;;;;5016573;28;20089;-48
2021/07/05 03:08:03;;;;;;;14.10;10.18;;;;;;;;;;5023016;28;20060;-48
2021/07/05 03:10:33;;;;;;;18.58;9.63;;;;;;;;;;5019237;28;20109;-49
2021/07/05 03:13:00;;;;;;;15.80;10.18;;;;;;;;;;5014231;28;20863;-48
2021/07/05 03:15:27;;;;;;;17.35;10.90;;;;;;;;;;5019551;28;20052;-50
2021/07/05 03:17:54;;;;;;;19.42;11.27;;;;;;;;;;5016945;28;20085;-50
2021/07/05 03:20:22;;;;;;;23.60;11.55;;;;;;;;;;5022576;28;20133;-47
2021/07/05 03:22:51;;;;;;;15.65;11.35;;;;;;;;;;5015502;28;20839;-48
2021/07/05 03:25:18;;;;;;;17.60;11.60;;;;;;;;;;5018777;28;20131;-48
2021/07/05 03:27:45;;;;;;;17.05;12.23;;;;;;;;;;5022289;28;20713;-49
2021/07/05 03:30:13;;;;;;;20.05;12.30;;;;;;;;;;5019260;28;20065;-48
2021/07/05 03:32:39;;;;;;;18.58;12.20;;;;;;;;;;5021153;28;20073;-49
2021/07/05 03:35:08;;;;;;;19.40;12.38;;;;;;;;;;5012647;28;20141;-48
2021/07/05 03:37:34;;;;;;;22.67;12.55;;;;;;;;;;5013647;28;20137;-49
2021/07/05 03:40:01;;;;;;;24.80;12.02;;;;;;;;;;5013925;28;20152;-49
2021/07/05 03:42:27;;;;;;;16.48;12.07;;;;;;;;;;5023696;28;20144;-51
2021/07/05 03:44:54;;;;;;;16.20;11.35;;;;;;;;;;5014057;28;20140;-50
2021/07/05 03:47:20;;;;;;;18.67;11.77;;;;;;;;;;5023948;28;20507;-49
2021/07/05 03:49:47;;;;;;;17.45;11.23;;;;;;;;;;5019996;28;20462;-49
2021/07/05 03:52:13;;;;;;;17.98;11.82;;;;;;;;;;5012295;28;20480;-49
2021/07/05 03:54:39;;;;;;;19.77;11.57;;;;;;;;;;5019639;28;20407;-48
2021/07/05 03:57:06;;;;;;;23.38;11.82;;;;;;;;;;5014558;28;20080;-49
2021/07/05 03:59:32;;;;;;;22.77;12.02;;;;;;;;;;5020739;28;20421;-48
2021/07/05 04:01:58;;;;;;;19.83;9.82;;;;;;;;;;5014381;28;20929;-48
2021/07/05 04:04:25;;;;;;;22.75;8.80;;;;;;;;;;5027947;28;20486;-47
2021/07/05 04:06:52;;;;;;;17.05;7.05;;;;;;;;;;5016241;28;20137;-47
2021/07/05 04:09:21;;;;;;;21.13;5.78;;;;;;;;;;5018966;28;20053;-48
2021/07/05 04:11:47;;;;;;;14.23;5.72;;;;;;;;;;5024893;28;20069;-48
2021/07/05 04:14:14;;;;;;;11.43;4.55;;;;;;;;;;5021643;28;20107;-48
2021/07/05 04:16:40;;;;;;;14.45;4.65;;;;;;;;;;5025045;28;20069;-47
2021/07/05 04:19:07;;;;;;;14.10;4.35;;;;;;;;;;5016266;28;20500;-47
2021/07/05 04:21:38;;;;;;;10.75;4.03;;;;;;;;;;5026190;28;20056;-47
2021/07/05 04:24:04;;;;;;;7.30;3.67;;;;;;;;;;5020131;28;20500;-48
2021/07/05 04:26:31;;;;;;;10.93;4.35;;;;;;;;;;5020774;28;20050;-47
2021/07/05 04:28:57;;;;;;;16.77;3.65;;;;;;;;;;5024234;28;20077;-49
2021/07/05 04:31:24;;;;;;;11.85;3.78;;;;;;;;;;5010054;28;20462;-48
2021/07/05 04:33:50;;;;;;;13.02;3.92;;;;;;;;;;5021424;28;20073;-47
2021/07/05 04:36:16;;;;;;;12.95;3.63;;;;;;;;;;5021801;28;20136;-47
2021/07/05 04:38:43;;;;;;;8.07;3.30;;;;;;;;;;5024380;28;20144;-47
2021/07/05 04:41:09;;;;;;;12.52;3.53;;;;;;;;;;5017463;28;20164;-49
2021/07/05 04:43:35;;;;;;;10.18;3.10;;;;;;;;;;5023204;28;20710;-48
2021/07/05 04:46:06;;;;;;;9.80;2.75;;;;;;;;;;5023270;28;20144;-48
2021/07/05 04:48:33;;;;;;;8.55;3.33;;;;;;;;;;5022463;28;20093;-48
2021/07/05 04:51:02;;;;;;;10.70;2.90;;;;;;;;;;5025857;28;20545;-47
2021/07/05 04:53:28;;;;;;;5.32;2.85;;;;;;;;;;5021756;28;20083;-48
2021/07/05 04:55:54;;;;;;;9.63;3.25;;;;;;;;;;5027621;28;20136;-49
2021/07/05 04:58:21;;;;;;;8.75;3.30;;;;;;;;;;5012955;28;20118;-48
2021/07/05 05:00:47;;;;;;;7.90;3.17;;;;;;;;;;5023015;28;20152;-48
2021/07/05 05:03:14;;;;;;;8.27;2.95;;;;;;;;;;5010102;28;20156;-48
2021/07/05 05:05:41;;;;;;;12.07;3.40;;;;;;;;;;5015333;28;20053;-47
2021/07/05 05:08:08;;;;;;;9.82;3.78;;;;;;;;;;5027047;28;20137;-49
2021/07/05 05:10:35;;;;;;;8.63;3.75;;;;;;;;;;5017307;28;20528;-48
2021/07/05 05:13:02;;;;;;;13.45;3.80;;;;;;;;;;5021278;28;20085;-49
2021/07/05 05:15:29;;;;;;;14.40;3.90;;;;;;;;;;5017102;28;20136;-48
2021/07/05 05:17:55;;;;;;;17.88;5.43;;;;;;;;;;5027963;28;20084;-48
2021/07/05 05:20:23;;;;;;;10.60;4.10;;;;;;;;;;5023036;28;20088;-47
2021/07/05 05:22:50;;;;;;;11.93;4.85;;;;;;;;;;5019603;28;20787;-47
2021/07/05 05:25:17;;;;;;;9.82;3.85;;;;;;;;;;5019389;28;20058;-47
2021/07/05 05:27:45;;;;;;;15.73;4.53;;;;;;;;;;5006492;28;20643;-47
2021/07/05 05:30:12;;;;;;;28.48;5.18;;;;;;;;;;5018765;28;20080;-48
2021/07/05 05:32:42;;;;;;;16.80;4.82;;;;;;;;;;5008857;28;20393;-48
2021/07/05 05:35:09;;;;;;;13.98;4.90;;;;;;;;;;5024939;28;20049;-48
2021/07/05 05:37:35;;;;;;;18.50;4.50;;;;;;;;;;5017805;28;20121;-48
2021/07/05 05:40:02;;;;;;;14.40;5.25;;;;;;;;;;5011265;28;20489;-47
2021/07/05 05:42:29;;;;;;;12.27;4.60;;;;;;;;;;5019416;28;20168;-47
2021/07/05 05:44:55;;;;;;;17.02;5.20;;;;;;;;;;5019481;28;20488;-47
2021/07/05 05:47:22;;;;;;;12.98;4.40;;;;;;;;;;5024564;28;20145;-48
2021/07/05 05:49:48;;;;;;;14.32;5.15;;;;;;;;;;5021076;28;20454;-45
2021/07/05 05:52:15;;;;;;;17.95;4.72;;;;;;;;;;5021687;28;20135;-49
2021/07/05 05:54:41;;;;;;;14.77;4.97;;;;;;;;;;5015691;28;20452;-49
2021/07/05 05:57:24;;;;;;;13.90;5.43;;;;;;;;;;5012252;28;20141;-49
2021/07/05 05:59:52;;;;;;;14.98;5.10;;;;;;;;;;5005050;28;20136;-49
2021/07/05 06:02:18;;;;;;;9.57;4.80;;;;;;;;;;5011944;28;20095;-49
2021/07/05 06:04:44;;;;;;;13.52;4.95;;;;;;;;;;5006486;28;20322;-48
2021/07/05 06:07:11;;;;;;;18.20;5.72;;;;;;;;;;5003225;28;20469;-49
2021/07/05 06:09:37;;;;;;;14.07;5.22;;;;;;;;;;5008128;28;20084;-50
2021/07/05 06:12:04;;;;;;;15.60;5.53;;;;;;;;;;5005407;28;20050;-48
2021/07/05 06:14:31;;;;;;;13.27;5.93;;;;;;;;;;5012366;28;20062;-49
2021/07/05 06:16:57;;;;;;;15.30;5.13;;;;;;;;;;5006668;28;20057;-47
2021/07/05 06:19:23;;;;;;;15.40;5.90;;;;;;;;;;5019809;28;20100;-48
2021/07/05 06:21:50;;;;;;;18.30;6.55;;;;;;;;;;5009947;28;20092;-47
2021/07/05 06:24:16;;;;;;;17.80;6.82;;;;;;;;;;5025090;28;20136;-49
2021/07/05 06:26:42;;;;;;;18.60;6.40;;;;;;;;;;5024034;28;20072;-49
2021/07/05 06:29:09;;;;;;;19.80;7.05;;;;;;;;;;5006002;28;20649;-49
2021/07/05 06:31:36;;;;;;;19.48;6.95;;;;;;;;;;5022338;28;20382;-51
2021/07/05 06:34:03;;;;;;;20.00;7.17;;;;;;;;;;5013885;28;20068;-48
2021/07/05 06:36:30;;;;;;;18.95;8.30;;;;;;;;;;5022747;28;20557;-49
2021/07/05 06:38:57;;;;;;;20.88;8.18;;;;;;;;;;5020007;28;20839;-49
2021/07/05 06:41:24;;;;;;;20.00;8.02;;;;;;;;;;5017834;28;20136;-51
2021/07/05 06:43:52;;;;;;;21.05;8.05;;;;;;;;;;5023095;28;20053;-49
2021/07/05 06:46:19;;;;;;;20.23;8.15;;;;;;;;;;5023002;28;20152;-49
2021/07/05 06:48:45;;;;;;;27.83;9.35;;;;;;;;;;5020559;28;20132;-49
2021/07/05 06:51:11;;;;;;;21.10;8.35;;;;;;;;;;5018908;28;20141;-49
2021/07/05 06:53:38;;;;;;;18.40;8.25;;;;;;;;;;5013313;28;20093;-48
2021/07/05 06:56:04;;;;;;;18.60;8.77;;;;;;;;;;5007094;28;20156;-49
2021/07/05 06:58:31;;;;;;;28.77;9.05;;;;;;;;;;5020264;28;20128;-49
2021/07/05 07:00:58;;;;;;;25.35;8.93;;;;;;;;;;4996630;28;20659;-50
2021/07/05 07:03:24;;;;;;;21.88;8.95;;;;;;;;;;5003992;28;20537;-49
2021/07/05 07:05:51;;;;;;;26.05;9.02;;;;;;;;;;5026094;28;20153;-50
2021/07/05 07:08:21;;;;;;;23.00;9.85;;;;;;;;;;5019372;28;20065;-49
2021/07/05 07:10:47;;;;;;;21.27;8.43;;;;;;;;;;5014890;28;20140;-48
2021/07/05 07:13:13;;;;;;;20.75;9.15;;;;;;;;;;5007327;28;20096;-49
2021/07/05 07:15:47;;;;;;;25.67;9.63;;;;;;;;;;5008333;28;20111;-49
2021/07/05 07:20:56;;;;;;;19.77;8.93;;;;;;;;;;5008833;28;20085;-50
2021/07/05 07:23:23;;;;;;;25.67;8.50;;;;;;;;;;5012605;28;20756;-48
2021/07/05 07:25:49;;;;;;;20.48;8.60;;;;;;;;;;5018181;28;20061;-47
2021/07/05 07:28:15;;;;;;;19.02;8.65;;;;;;;;;;5017720;28;20152;-48
2021/07/05 07:30:42;;;;;;;31.75;8.73;;;;;;;;;;5000387;28;20556;-48
2021/07/05 07:33:09;;;;;;;29.50;9.10;;;;;;;;;;5021506;28;20564;-49
2021/07/05 07:35:35;;;;;;;23.42;8.10;;;;;;;;;;5005509;28;20085;-48
2021/07/05 07:38:02;;;;;;;28.80;9.23;;;;;;;;;;5013288;28;20055;-48
2021/07/05 07:40:35;;;;;;;27.30;8.73;;;;;;;;;;5017520;28;20049;-49
2021/07/05 07:43:01;;;;;;;27.00;8.20;;;;;;;;;;5020687;28;20405;-49
2021/07/05 07:45:28;;;;;;;31.42;8.82;;;;;;;;;;5019367;28;20049;-48
2021/07/05 07:47:54;;;;;;;23.65;9.40;;;;;;;;;;5010043;28;20058;-50
2021/07/05 07:50:21;;;;;;;26.67;8.30;;;;;;;;;;5023430;28;20160;-49
2021/07/05 07:52:47;;;;;;;30.33;9.23;;;;;;;;;;5004332;28;20149;-50
2021/07/05 07:55:15;;;;;;;20.70;8.48;;;;;;;;;;5029934;28;20752;-48
2021/07/05 07:57:42;;;;;;;24.35;8.20;;;;;;;;;;5011601;28;20180;-49
2021/07/05 08:00:13;;;;;;;24.52;9.45;;;;;;;;;;5011981;28;20664;-50
2021/07/05 08:02:45;;;;;;;23.80;8.65;;;;;;;;;;5004064;28;20045;-48
2021/07/05 08:05:13;;;;;;;25.08;9.27;;;;;;;;;;5021201;28;20576;-50
2021/07/05 08:07:43;;;;;;;25.65;9.02;;;;;;;;;;5004356;28;20145;-50
2021/07/05 08:10:11;;;;;;;26.30;9.07;;;;;;;;;;5016376;28;20136;-51
2021/07/05 08:12:39;;;;;;;26.20;8.93;;;;;;;;;;5009899;28;20087;-52
2021/07/05 08:15:06;;;;;;;37.40;9.18;;;;;;;;;;5018488;28;20447;-49
2021/07/05 08:17:32;;;;;;;23.17;8.45;;;;;;;;;;5022907;28;20058;-58
2021/07/05 08:19:59;;;;;;;25.92;8.40;;;;;;;;;;5001315;28;20145;-50
2021/07/05 08:22:25;;;;;;;27.20;9.25;;;;;;;;;;5008403;28;20156;-49
2021/07/05 08:24:53;;;;;;;26.15;8.20;;;;;;;;;;5019332;28;20485;-48
2021/07/05 08:27:19;;;;;;;25.35;8.45;;;;;;;;;;5024813;28;20161;-49
2021/07/05 08:29:46;;;;;;;25.58;8.70;;;;;;;;;;5026635;28;20100;-49
2021/07/05 08:32:12;;;;;;;30.92;8.10;;;;;;;;;;5017963;28;20509;-52
2021/07/05 08:34:39;;;;;;;25.38;7.95;;;;;;;;;;5012054;28;20141;-51
2021/07/05 08:37:05;;;;;;;35.33;9.70;;;;;;;;;;5016939;28;20107;-48
2021/07/05 08:39:31;;;;;;;22.90;7.53;;;;;;;;;;5008873;28;20490;-48
2021/07/05 08:41:58;;;;;;;29.75;8.30;;;;;;;;;;5017560;28;20049;-47
2021/07/05 08:44:24;;;;;;;27.48;8.38;;;;;;;;;;5015371;28;20136;-49
2021/07/05 08:46:51;;;;;;;28.77;8.25;;;;;;;;;;5018031;28;20073;-50
2021/07/05 08:49:17;;;;;;;27.35;7.72;;;;;;;;;;5013081;28;20056;-50
2021/07/05 08:51:44;;;;;;;29.73;7.55;;;;;;;;;;5008257;28;20136;-46
2021/07/05 08:54:10;;;;;;;28.23;8.23;;;;;;;;;;5002752;28;20481;-50
2021/07/05 08:56:39;;;;;;;26.10;7.43;;;;;;;;;;5012848;28;20699;-49
2021/07/05 08:59:05;;;;;;;23.08;7.53;;;;;;;;;;5022738;28;20148;-51
2021/07/05 09:01:31;;;;;;;25.17;7.78;;;;;;;;;;5023302;28;20148;-48
2021/07/05 09:03:58;;;;;;;18.90;7.15;;;;;;;;;;5024473;28;20215;-49
2021/07/05 09:06:24;;;;;;;19.58;7.90;;;;;;;;;;5009870;28;20149;-51
2021/07/05 09:08:56;;;;;;;25.50;8.23;;;;;;;;;;5015440;28;20087;-50
2021/07/05 09:11:42;;;;;;;20.98;7.90;;;;;;;;;;5020943;28;20085;-49
2021/07/05 09:14:10;;;;;;;24.15;8.35;;;;;;;;;;5016820;28;20826;-53
2021/07/05 09:16:37;;;;;;;22.33;8.20;;;;;;;;;;5011219;28;20132;-48
2021/07/05 09:19:12;;;;;;;25.17;8.10;;;;;;;;;;5022564;28;20050;-50
2021/07/05 09:21:38;;;;;;;19.13;7.90;;;;;;;;;;5013923;28;20137;-50
2021/07/05 09:24:06;;;;;;;22.17;9.95;;;;;;;;;;5013765;28;20046;-50
2021/07/05 09:26:40;;;;;;;18.13;7.70;;;;;;;;;;5013737;28;20128;-50
2021/07/05 09:29:18;;;;;;;21.08;8.00;;;;;;;;;;5018188;28;20132;-50
2021/07/05 09:31:46;;;;;;;19.95;8.07;;;;;;;;;;5013322;28;20144;-49
2021/07/05 09:34:33;;;;;;;26.58;8.00;;;;;;;;;;5015731;28;20821;-52
2021/07/05 09:37:13;;;;;;;18.90;8.00;;;;;;;;;;5013498;28;20157;-50
2021/07/05 09:39:39;;;;;;;29.20;7.72;;;;;;;;;;5004107;28;20124;-50
2021/07/05 09:42:07;;;;;;;19.10;7.78;;;;;;;;;;5004256;28;20152;-50
2021/07/05 09:44:38;;;;;;;12.30;6.22;;;;;;;;;;5010217;28;20089;-49
2021/07/05 09:47:12;;;;;;;19.10;7.18;;;;;;;;;;5017577;28;20057;-49
2021/07/05 09:49:38;;;;;;;20.23;6.97;;;;;;;;;;5021306;28;20071;-49
2021/07/05 09:52:06;;;;;;;15.13;6.68;;;;;;;;;;5026399;28;20137;-50
2021/07/05 09:54:34;;;;;;;21.40;7.03;;;;;;;;;;5020898;28;20164;-49
2021/07/05 09:57:01;;;;;;;18.53;7.43;;;;;;;;;;5020114;28;20060;-51
2021/07/05 09:59:29;;;;;;;21.48;7.70;;;;;;;;;;5021283;28;20152;-50
2021/07/05 10:01:57;;;;;;;20.45;8.35;;;;;;;;;;5018503;28;20165;-49
2021/07/05 10:04:26;;;;;;;19.23;7.43;;;;;;;;;;5027647;28;20056;-49
2021/07/05 10:06:57;;;;;;;24.73;7.30;;;;;;;;;;5017477;28;20789;-49
2021/07/05 10:09:33;;;;;;;24.42;7.13;;;;;;;;;;5022480;28;20089;-48
2021/07/05 10:12:19;;;;;;;18.13;7.85;;;;;;;;;;5002693;28;20476;-49
2021/07/05 10:14:57;;;;;;;19.77;7.90;;;;;;;;;;5024570;28;20471;-49
2021/07/05 10:17:24;;;;;;;16.75;7.25;;;;;;;;;;5007877;28;20136;-48
2021/07/05 10:19:51;;;;;;;17.70;6.57;;;;;;;;;;5025588;28;20115;-50
2021/07/05 10:22:17;;;;;;;20.27;6.47;;;;;;;;;;5022815;28;20385;-48
2021/07/05 10:24:45;;;;;;;20.35;6.40;;;;;;;;;;5012429;28;20860;-49
2021/07/05 10:27:12;;;;;;;17.80;6.72;;;;;;;;;;5017607;28;20124;-49
2021/07/05 10:29:39;;;;;;;20.10;6.97;;;;;;;;;;5013291;28;20140;-49
2021/07/05 10:32:06;;;;;;;17.07;6.90;;;;;;;;;;5014473;28;20137;-49
2021/07/05 10:34:33;;;;;;;13.00;6.13;;;;;;;;;;5014817;28;20054;-49
2021/07/05 10:37:02;;;;;;;17.60;6.40;;;;;;;;;;5017416;28;20132;-48
2021/07/05 10:39:29;;;;;;;17.10;6.13;;;;;;;;;;5000415;28;21097;-50
2021/07/05 10:41:55;;;;;;;16.42;5.53;;;;;;;;;;5026858;28;20160;-49
2021/07/05 10:44:39;;;;;;;16.85;6.50;;;;;;;;;;5024279;28;20049;-50
2021/07/05 10:47:05;;;;;;;15.38;6.78;;;;;;;;;;5013130;28;20053;-49
2021/07/05 10:49:34;;;;;;;18.55;7.53;;;;;;;;;;5011179;28;20081;-49
2021/07/05 10:52:06;;;;;;;19.10;7.28;;;;;;;;;;5001915;28;20109;-49
2021/07/05 10:54:47;;;;;;;20.45;7.63;;;;;;;;;;5012400;28;20142;-48
2021/07/05 10:57:14;;;;;;;14.98;6.95;;;;;;;;;;5003429;28;20165;-50
2021/07/05 10:59:44;;;;;;;16.35;8.20;;;;;;;;;;5024250;28;20136;-49
2021/07/05 11:02:30;;;;;;;14.45;7.25;;;;;;;;;;5011128;28;20136;-49
2021/07/05 11:04:56;;;;;;;17.23;7.18;;;;;;;;;;5006784;28;20165;-51
2021/07/05 11:07:24;;;;;;;13.15;6.82;;;;;;;;;;5002124;28;20042;-49
2021/07/05 11:09:57;;;;;;;18.92;6.57;;;;;;;;;;5011488;28;20085;-49
2021/07/05 11:12:30;;;;;;;17.33;7.03;;;;;;;;;;5009358;28;20053;-50
2021/07/05 11:14:57;;;;;;;21.15;7.22;;;;;;;;;;5004583;28;20138;-49
2021/07/05 11:17:25;;;;;;;16.08;6.60;;;;;;;;;;5003101;28;20092;-50
2021/07/05 11:20:15;;;;;;;18.70;7.32;;;;;;;;;;5007399;28;20053;-50
2021/07/05 11:22:52;;;;;;;16.58;7.35;;;;;;;;;;5017593;28;20112;-49
2021/07/05 11:25:18;;;;;;;20.35;7.38;;;;;;;;;;5011659;28;20766;-52
2021/07/05 11:27:47;;;;;;;17.25;7.30;;;;;;;;;;5023921;28;20433;-48
2021/07/05 11:30:21;;;;;;;20.98;7.25;;;;;;;;;;5006678;28;20081;-52
2021/07/05 11:32:49;;;;;;;15.70;7.85;;;;;;;;;;5010896;28;20054;-51
2021/07/05 11:35:30;;;;;;;15.93;6.95;;;;;;;;;;5008033;28;20578;-52
2021/07/05 11:37:58;;;;;;;16.38;8.20;;;;;;;;;;5014180;28;20421;-50
2021/07/05 11:40:37;;;;;;;17.30;7.68;;;;;;;;;;5016997;28;20128;-48
2021/07/05 11:43:03;;;;;;;21.00;10.25;;;;;;;;;;5020253;28;20498;-48
2021/07/05 11:45:39;;;;;;;21.05;10.77;;;;;;;;;;5021876;28;20614;-48
2021/07/05 11:48:05;;;;;;;20.63;12.57;;;;;;;;;;5013223;28;20077;-49
2021/07/05 11:50:33;;;;;;;25.15;12.90;;;;;;;;;;5020204;28;20088;-50
2021/07/05 11:53:00;;;;;;;18.88;9.70;;;;;;;;;;5011884;28;20129;-49
2021/07/05 11:55:28;;;;;;;14.75;8.30;;;;;;;;;;5018318;28;20099;-53
2021/07/05 11:57:55;;;;;;;14.35;7.70;;;;;;;;;;5010424;28;20049;-49
2021/07/05 12:00:22;;;;;;;16.83;8.20;;;;;;;;;;5016800;28;20053;-49
2021/07/05 12:03:11;;;;;;;13.85;8.20;;;;;;;;;;5014331;28;20569;-49
2021/07/05 12:05:38;;;;;;;14.95;7.35;;;;;;;;;;5012666;28;20136;-48
2021/07/05 12:08:09;;;;;;;12.60;6.60;;;;;;;;;;5016976;28;20085;-49
2021/07/05 12:10:39;;;;;;;13.68;6.43;;;;;;;;;;5009594;28;20152;-48
2021/07/05 12:13:23;;;;;;;12.30;5.75;;;;;;;;;;5005874;28;20137;-48
2021/07/05 12:15:57;;;;;;;12.80;5.57;;;;;;;;;;5006442;28;20068;-47
2021/07/05 12:18:24;;;;;;;10.93;5.22;;;;;;;;;;5010479;28;20053;-50
2021/07/05 12:20:58;;;;;;;10.65;4.68;;;;;;;;;;5014495;28;20104;-51
2021/07/05 12:23:32;;;;;;;13.95;5.07;;;;;;;;;;5019573;28;20510;-49
2021/07/05 12:26:10;;;;;;;10.93;4.80;;;;;;;;;;5020978;28;20049;-49
2021/07/05 12:28:36;;;;;;;12.13;5.03;;;;;;;;;;5023474;28;20132;-50
2021/07/05 12:31:02;;;;;;;10.82;4.32;;;;;;;;;;5018384;28;20483;-50
2021/07/05 12:33:29;;;;;;;10.50;4.45;;;;;;;;;;5017833;28;20136;-50
2021/07/05 12:35:58;;;;;;;12.82;5.70;;;;;;;;;;5005184;28;20629;-50
2021/07/05 12:38:26;;;;;;;10.95;5.13;;;;;;;;;;5002598;28;20137;-50
2021/07/05 12:40:53;;;;;;;9.27;5.00;;;;;;;;;;5019773;28;20151;-48
2021/07/05 12:43:19;;;;;;;10.88;4.85;;;;;;;;;;5008688;28;20133;-48
2021/07/05 12:45:52;;;;;;;12.82;4.85;;;;;;;;;;5008019;28;20485;-53
2021/07/05 12:48:20;;;;;;;11.18;5.00;;;;;;;;;;5010165;28;20132;-50
2021/07/05 12:50:47;;;;;;;;;;;;;;;;;;5010176;28;20123;-49
2021/07/05 12:53:16;;;;;;;14.98;4.93;;;;;;;;;;5011659;28;20019;-50
2021/07/05 12:55:49;;;;;;;6.40;3.60;;;;;;;;;;5013157;28;20630;-49
2021/07/05 12:58:36;;;;;;;4.55;3.33;;;;;;;;;;5011891;28;20132;-52
2021/07/05 13:01:04;;;;;;;7.35;3.45;;;;;;;;;;5006783;28;20132;-49
2021/07/05 13:03:30;;;;;;;7.32;3.38;;;;;;;;;;5007418;28;20050;-50
2021/07/05 13:06:04;;;;;;;7.80;3.28;;;;;;;;;;5008268;28;20471;-52
2021/07/05 13:08:31;;;;;;;8.57;3.42;;;;;;;;;;5024755;28;20148;-49
2021/07/05 13:11:27;;;;;;;7.90;2.60;;;;;;;;;;5006786;28;20136;-51
2021/07/05 13:13:53;;;;;;;8.98;3.58;;;;;;;;;;5008775;28;20136;-50
2021/07/05 13:16:24;;;;;;;7.93;4.32;;;;;;;;;;5009431;28;20076;-49
2021/07/05 13:18:51;;;;;;;9.70;4.20;;;;;;;;;;5015575;28;20642;-47
2021/07/05 13:21:34;;;;;;;7.03;2.40;;;;;;;;;;5008430;28;20436;-50
2021/07/05 13:24:20;;;;;;;10.38;2.90;;;;;;;;;;5019202;28;20108;-49
2021/07/05 13:26:47;;;;;;;6.78;2.58;;;;;;;;;;5021704;28;20141;-48
2021/07/05 13:29:16;;;;;;;5.15;2.53;;;;;;;;;;4995531;28;20049;-48
2021/07/05 13:31:42;;;;;;;12.32;2.25;;;;;;;;;;5018114;28;20232;-48
2021/07/05 13:34:28;;;;;;;4.25;1.90;;;;;;;;;;5016161;28;20050;-48
2021/07/05 13:36:55;;;;;;;6.13;1.70;;;;;;;;;;5022121;28;20140;-48
2021/07/05 13:39:26;;;;;;;11.43;2.40;;;;;;;;;;5007485;28;20048;-48
2021/07/05 13:41:59;;;;;;;5.78;2.22;;;;;;;;;;5007833;28;20176;-50
2021/07/05 13:44:28;;;;;;;5.95;2.10;;;;;;;;;;5006711;28;20060;-49
2021/07/05 13:47:10;;;;;;;4.65;1.98;;;;;;;;;;5014561;28;20739;-51
2021/07/05 13:49:41;;;;;;;10.38;2.25;;;;;;;;;;5013206;28;20053;-50
2021/07/05 13:52:07;;;;;;;4.30;1.63;;;;;;;;;;5020877;28;20144;-49
2021/07/05 13:54:34;;;;;;;5.10;1.88;;;;;;;;;;5014294;28;20860;-50
2021/07/05 13:57:07;;;;;;;6.15;1.77;;;;;;;;;;5011227;28;20053;-50
2021/07/05 13:59:33;;;;;;;9.65;2.13;;;;;;;;;;5007695;28;20145;-50
2021/07/05 14:02:00;;;;;;;5.13;2.00;;;;;;;;;;5011978;28;20386;-50
2021/07/05 14:04:26;;;;;;;5.38;2.20;;;;;;;;;;5013584;28;20445;-49
2021/07/05 14:06:53;;;;;;;4.80;1.80;;;;;;;;;;5020286;28;20140;-53
2021/07/05 14:09:19;;;;;;;7.20;1.85;;;;;;;;;;5018343;28;20540;-50
2021/07/05 14:11:45;;;;;;;9.93;2.28;;;;;;;;;;5010428;28;20088;-51
2021/07/05 14:14:12;;;;;;;6.50;2.00;;;;;;;;;;5014932;28;20164;-50
2021/07/05 14:16:38;;;;;;;7.28;2.25;;;;;;;;;;5015222;28;20161;-50
2021/07/05 14:19:05;;;;;;;5.28;2.25;;;;;;;;;;5015927;28;20050;-49
2021/07/05 14:21:33;;;;;;;5.70;2.00;;;;;;;;;;5013283;28;20493;-50
2021/07/05 14:24:00;;;;;;;6.22;1.90;;;;;;;;;;5008851;28;20050;-49
2021/07/05 14:26:26;;;;;;;5.82;2.25;;;;;;;;;;5023780;28;20103;-49
2021/07/05 14:28:53;;;;;;;6.10;2.40;;;;;;;;;;5015607;28;20129;-48
2021/07/05 14:31:19;;;;;;;8.07;2.28;;;;;;;;;;5010066;28;20151;-48
2021/07/05 14:33:45;;;;;;;9.20;2.95;;;;;;;;;;5009460;28;20049;-51
2021/07/05 14:36:13;;;;;;;5.30;2.20;;;;;;;;;;5004665;28;20144;-50
2021/07/05 14:38:46;;;;;;;8.57;2.80;;;;;;;;;;5018620;28;20079;-51
2021/07/05 14:41:12;;;;;;;8.10;2.85;;;;;;;;;;5020364;28;20053;-49